Time;durP1;ratioP1;P1;durP2;ratioP2;P2;SDS_P1;SDS_P2;PMS_P1;PMS_P2;Temp;Humidity;BMP_temperature;BMP_pressure;BME280_temperature;BME280_humidity;BME280_pressure;Samples;Min_cycle;Max_cycle;Signal;HPM_P1;HPM_P2
2022/11/12 00:00:20;;;;;;;17.53;9.50;;;;;;;;;;5019616;28;20033;-77
2022/11/12 00:02:46;;;;;;;17.40;9.83;;;;;;;;;;5035817;28;20041;-78
2022/11/12 00:05:12;;;;;;;13.93;9.77;;;;;;;;;;5019693;28;20076;-76
2022/11/12 00:07:38;;;;;;;15.50;10.17;;;;;;;;;;5029929;28;20061;-76
2022/11/12 00:10:07;;;;;;;20.53;10.93;;;;;;;;;;5029986;28;20085;-76
2022/11/12 00:12:33;;;;;;;16.93;10.43;;;;;;;;;;5029182;28;20030;-77
2022/11/12 00:15:01;;;;;;;19.13;10.70;;;;;;;;;;5031185;28;20033;-77
2022/11/12 00:17:27;;;;;;;17.90;10.73;;;;;;;;;;5018922;28;20037;-77
2022/11/12 00:19:53;;;;;;;18.40;10.83;;;;;;;;;;5018835;28;20087;-77
2022/11/12 00:22:20;;;;;;;20.87;11.47;;;;;;;;;;5022027;28;20028;-76
2022/11/12 00:24:46;;;;;;;17.50;10.63;;;;;;;;;;5029557;28;20038;-77
2022/11/12 00:27:15;;;;;;;17.43;10.77;;;;;;;;;;5032411;28;20075;-76
2022/11/12 00:29:41;;;;;;;16.73;10.50;;;;;;;;;;5018823;28;20022;-76
2022/11/12 00:32:07;;;;;;;18.50;11.67;;;;;;;;;;5033427;28;20034;-76
2022/11/12 00:34:33;;;;;;;19.43;12.30;;;;;;;;;;5018845;28;20121;-78
2022/11/12 00:37:00;;;;;;;17.13;11.60;;;;;;;;;;5019683;28;20062;-77
2022/11/12 00:39:26;;;;;;;23.87;12.70;;;;;;;;;;5018933;28;20048;-77
2022/11/12 00:41:52;;;;;;;22.83;12.73;;;;;;;;;;5017550;28;20056;-77
2022/11/12 00:44:18;;;;;;;20.63;11.93;;;;;;;;;;5031771;28;20182;-78
2022/11/12 00:46:44;;;;;;;20.30;12.67;;;;;;;;;;5016973;28;20045;-76
2022/11/12 00:49:11;;;;;;;24.70;12.47;;;;;;;;;;5018311;28;20029;-78
2022/11/12 00:51:37;;;;;;;25.73;13.67;;;;;;;;;;5031608;28;20354;-76
2022/11/12 00:54:03;;;;;;;25.40;13.30;;;;;;;;;;5018881;28;20033;-76
2022/11/12 00:56:29;;;;;;;29.23;14.53;;;;;;;;;;5029165;28;20120;-77
2022/11/12 00:58:55;;;;;;;26.70;13.47;;;;;;;;;;5017304;28;20034;-75
2022/11/12 01:01:21;;;;;;;21.20;13.23;;;;;;;;;;5019127;28;20104;-77
2022/11/12 01:03:47;;;;;;;27.20;13.43;;;;;;;;;;5018892;28;20037;-76
2022/11/12 01:06:14;;;;;;;17.90;12.40;;;;;;;;;;5017787;28;20124;-76
2022/11/12 01:08:41;;;;;;;21.60;12.57;;;;;;;;;;5028956;28;20040;-77
2022/11/12 01:11:12;;;;;;;23.33;13.03;;;;;;;;;;5019344;28;20363;-76
2022/11/12 01:13:39;;;;;;;25.93;12.80;;;;;;;;;;5016423;28;20052;-78
2022/11/12 01:16:12;;;;;;;19.70;12.70;;;;;;;;;;5030634;28;20612;-77
2022/11/12 01:18:38;;;;;;;;;;;;;;;;;;5018506;28;20034;-77
2022/11/12 01:21:08;;;;;;;21.10;12.10;;;;;;;;;;5028154;28;19939;-76
2022/11/12 01:23:35;;;;;;;21.57;12.90;;;;;;;;;;5017670;28;20553;-76
2022/11/12 01:26:05;;;;;;;20.90;11.53;;;;;;;;;;5022389;28;20228;-76
2022/11/12 01:28:31;;;;;;;23.93;13.97;;;;;;;;;;5017645;28;20029;-75
2022/11/12 01:30:57;;;;;;;23.33;12.47;;;;;;;;;;5030060;28;20497;-78
2022/11/12 01:33:23;;;;;;;21.43;11.70;;;;;;;;;;5030445;28;20029;-78
2022/11/12 01:35:49;;;;;;;22.57;11.57;;;;;;;;;;5018559;28;20045;-76
2022/11/12 01:38:15;;;;;;;21.73;11.73;;;;;;;;;;5016841;28;20045;-78
2022/11/12 01:40:41;;;;;;;21.67;11.87;;;;;;;;;;5015770;28;20038;-77
2022/11/12 01:43:12;;;;;;;19.30;12.23;;;;;;;;;;5019816;28;20026;-77
2022/11/12 01:45:44;;;;;;;19.27;11.00;;;;;;;;;;5030021;28;20520;-76
2022/11/12 01:48:22;;;;;;;17.88;11.40;;;;;;;;;;5029690;28;20033;-76
2022/11/12 01:50:49;;;;;;;21.40;11.90;;;;;;;;;;5030346;28;20623;-78
2022/11/12 01:53:15;;;;;;;22.47;11.57;;;;;;;;;;5015531;28;20029;-78
2022/11/12 01:55:43;;;;;;;18.83;11.00;;;;;;;;;;5017242;28;20080;-77
2022/11/12 01:58:20;;;;;;;16.67;10.33;;;;;;;;;;5017302;28;20096;-78
2022/11/12 02:00:46;;;;;;;22.00;11.30;;;;;;;;;;5027984;28;20041;-77
2022/11/12 02:03:17;;;;;;;20.67;11.53;;;;;;;;;;5020207;28;21753;-78
2022/11/12 02:05:44;;;;;;;16.73;11.17;;;;;;;;;;5015519;28;20076;-78
2022/11/12 02:08:11;;;;;;;19.73;11.53;;;;;;;;;;5026360;28;20076;-76
2022/11/12 02:10:38;;;;;;;23.67;12.27;;;;;;;;;;5013824;28;21031;-77
2022/11/12 02:15:49;;;;;;;24.27;11.87;;;;;;;;;;5017211;28;20056;-77
2022/11/12 02:18:16;;;;;;;19.77;12.20;;;;;;;;;;5019804;28;20140;-76
2022/11/12 02:20:42;;;;;;;19.30;11.73;;;;;;;;;;5029291;28;20465;-76
2022/11/12 02:23:08;;;;;;;18.80;10.97;;;;;;;;;;5028083;28;20435;-77
2022/11/12 02:25:35;;;;;;;19.20;11.10;;;;;;;;;;5016219;28;20433;-77
2022/11/12 02:28:02;;;;;;;19.97;11.93;;;;;;;;;;5013136;28;20028;-76
2022/11/12 02:30:31;;;;;;;23.60;12.27;;;;;;;;;;5014738;28;20037;-76
2022/11/12 02:33:00;;;;;;;27.40;12.70;;;;;;;;;;5015880;28;20465;-75
2022/11/12 02:35:26;;;;;;;19.97;11.47;;;;;;;;;;5030283;28;20026;-77
2022/11/12 02:37:52;;;;;;;18.03;11.07;;;;;;;;;;5017850;28;20481;-76
2022/11/12 02:40:18;;;;;;;20.03;11.63;;;;;;;;;;5015755;28;20065;-75
2022/11/12 02:42:47;;;;;;;16.40;11.33;;;;;;;;;;5015417;28;20057;-76
2022/11/12 02:45:13;;;;;;;22.03;12.20;;;;;;;;;;5030171;28;20030;-76
2022/11/12 02:47:41;;;;;;;19.70;12.33;;;;;;;;;;5016222;28;20034;-77
2022/11/12 02:50:07;;;;;;;19.00;11.53;;;;;;;;;;5024694;28;20021;-76
2022/11/12 02:52:33;;;;;;;16.60;11.17;;;;;;;;;;5017671;28;20038;-77
2022/11/12 02:55:00;;;;;;;23.03;11.33;;;;;;;;;;5027627;28;20049;-77
2022/11/12 02:57:26;;;;;;;16.97;10.97;;;;;;;;;;5016064;28;20034;-75
2022/11/12 02:59:52;;;;;;;19.47;11.20;;;;;;;;;;5017695;28;20034;-76
2022/11/12 03:02:20;;;;;;;19.83;11.97;;;;;;;;;;5015342;28;20175;-76
2022/11/12 03:04:46;;;;;;;22.50;12.10;;;;;;;;;;5016671;28;20046;-76
2022/11/12 03:07:12;;;;;;;17.33;11.03;;;;;;;;;;5027071;28;20026;-77
2022/11/12 03:09:38;;;;;;;20.50;11.20;;;;;;;;;;5024213;28;20737;-76
2022/11/12 03:12:07;;;;;;;22.40;11.17;;;;;;;;;;5017405;28;20474;-77
2022/11/12 03:14:33;;;;;;;19.63;10.93;;;;;;;;;;5016316;28;20026;-77
2022/11/12 03:17:26;;;;;;;18.60;11.63;;;;;;;;;;5017026;28;20042;-77
2022/11/12 03:19:53;;;;;;;14.63;10.70;;;;;;;;;;5016632;28;20037;-77
2022/11/12 03:22:19;;;;;;;18.87;11.80;;;;;;;;;;5016648;28;20038;-78
2022/11/12 03:24:45;;;;;;;20.03;11.23;;;;;;;;;;5021280;28;20026;-76
2022/11/12 03:27:11;;;;;;;17.67;11.10;;;;;;;;;;5017932;28;20030;-77
2022/11/12 03:29:37;;;;;;;35.33;11.80;;;;;;;;;;5020225;28;20237;-78
2022/11/12 03:32:03;;;;;;;17.50;10.93;;;;;;;;;;5017648;28;20935;-76
2022/11/12 03:34:29;;;;;;;17.27;11.20;;;;;;;;;;5019797;28;20042;-77
2022/11/12 03:36:57;;;;;;;22.23;12.10;;;;;;;;;;5020731;28;20037;-78
2022/11/12 03:39:23;;;;;;;20.50;11.77;;;;;;;;;;5012052;28;20034;-77
2022/11/12 03:41:49;;;;;;;17.33;11.73;;;;;;;;;;5037260;28;20591;-77
2022/11/12 03:44:15;;;;;;;17.80;10.67;;;;;;;;;;5019618;28;20057;-76
2022/11/12 03:46:43;;;;;;;23.47;12.63;;;;;;;;;;5030635;28;20032;-77
2022/11/12 03:49:10;;;;;;;17.43;10.60;;;;;;;;;;5020572;28;20358;-76
2022/11/12 03:51:38;;;;;;;16.37;11.70;;;;;;;;;;5033765;28;20038;-77
2022/11/12 03:54:04;;;;;;;19.40;10.97;;;;;;;;;;5032988;28;20029;-76
2022/11/12 03:56:33;;;;;;;17.93;11.00;;;;;;;;;;5032845;28;20037;-75
2022/11/12 03:59:01;;;;;;;21.63;10.60;;;;;;;;;;5018397;28;20045;-77
2022/11/12 04:01:27;;;;;;;18.17;11.43;;;;;;;;;;5033301;28;20030;-76
2022/11/12 04:03:53;;;;;;;20.77;10.53;;;;;;;;;;5018589;28;20041;-77
2022/11/12 04:09:04;;;;;;;21.07;11.97;;;;;;;;;;5020195;28;20469;-77
2022/11/12 04:11:30;;;;;;;17.87;11.00;;;;;;;;;;5032767;28;20526;-77
2022/11/12 04:13:57;;;;;;;20.07;11.00;;;;;;;;;;5019104;28;20123;-77
2022/11/12 04:22:11;;;;;;;15.13;10.43;;;;;;;;;;5023184;28;20057;-77
2022/11/12 04:27:28;;;;;;;21.07;11.23;;;;;;;;;;5018133;28;20107;-77
2022/11/12 04:32:40;;;;;;;20.93;13.20;;;;;;;;;;5019203;28;20107;-78
2022/11/12 04:35:07;;;;;;;17.43;11.73;;;;;;;;;;5017757;28;20029;-77
2022/11/12 04:37:43;;;;;;;17.87;11.07;;;;;;;;;;5020252;28;20367;-77
2022/11/12 04:45:40;;;;;;;20.10;13.33;;;;;;;;;;5019899;28;20556;-76
2022/11/12 04:48:06;;;;;;;23.87;13.73;;;;;;;;;;5038340;28;20030;-76
2022/11/12 04:50:33;;;;;;;24.13;14.63;;;;;;;;;;5031384;28;20033;-77
2022/11/12 04:52:59;;;;;;;24.60;14.63;;;;;;;;;;5034038;28;20037;-76
2022/11/12 04:55:27;;;;;;;22.37;13.43;;;;;;;;;;5019956;28;20088;-77
2022/11/12 04:57:54;;;;;;;21.40;14.33;;;;;;;;;;5021598;28;20069;-78
2022/11/12 05:00:22;;;;;;;19.93;11.87;;;;;;;;;;5020659;28;20117;-77
2022/11/12 05:02:51;;;;;;;21.93;14.10;;;;;;;;;;5011547;28;20037;-77
2022/11/12 05:05:17;;;;;;;19.47;13.90;;;;;;;;;;5031948;28;20025;-78
2022/11/12 05:07:43;;;;;;;21.30;13.67;;;;;;;;;;5020111;28;20022;-77
2022/11/12 05:10:09;;;;;;;20.20;13.37;;;;;;;;;;5016922;28;20096;-79
2022/11/12 05:12:35;;;;;;;20.30;12.90;;;;;;;;;;5031091;28;20845;-76
2022/11/12 05:15:02;;;;;;;20.77;13.23;;;;;;;;;;5031775;28;20063;-77
2022/11/12 05:17:28;;;;;;;23.40;14.00;;;;;;;;;;5020018;28;20458;-78
2022/11/12 05:19:54;;;;;;;24.97;14.60;;;;;;;;;;5031458;28;20030;-77
2022/11/12 05:22:20;;;;;;;22.53;14.33;;;;;;;;;;5018661;28;20025;-76
2022/11/12 05:24:46;;;;;;;20.77;14.33;;;;;;;;;;5019681;28;20367;-78
2022/11/12 05:27:16;;;;;;;26.50;14.90;;;;;;;;;;5031154;28;20022;-77
2022/11/12 05:29:42;;;;;;;22.50;14.47;;;;;;;;;;5030049;28;20030;-77
2022/11/12 05:32:10;;;;;;;22.60;14.70;;;;;;;;;;5030918;28;20021;-77
2022/11/12 05:34:36;;;;;;;18.10;13.20;;;;;;;;;;5028571;28;20033;-77
2022/11/12 05:37:02;;;;;;;21.67;13.60;;;;;;;;;;5034298;28;20064;-77
2022/11/12 05:39:29;;;;;;;21.40;13.87;;;;;;;;;;5021107;28;20089;-76
2022/11/12 05:41:55;;;;;;;20.97;13.97;;;;;;;;;;5029261;28;21636;-76
2022/11/12 05:44:21;;;;;;;19.97;13.73;;;;;;;;;;5031529;28;20037;-76
2022/11/12 05:46:49;;;;;;;21.27;13.07;;;;;;;;;;5018529;28;20061;-76
2022/11/12 05:49:15;;;;;;;19.97;12.50;;;;;;;;;;5016728;28;20466;-76
2022/11/12 05:51:43;;;;;;;22.60;14.37;;;;;;;;;;5032066;28;20095;-77
2022/11/12 05:54:09;;;;;;;20.80;13.83;;;;;;;;;;5030355;28;20073;-76
2022/11/12 05:56:35;;;;;;;21.43;14.07;;;;;;;;;;5017212;28;20037;-78
2022/11/12 05:59:02;;;;;;;22.40;13.83;;;;;;;;;;5017065;28;20042;-76
2022/11/12 06:01:29;;;;;;;24.87;15.17;;;;;;;;;;5025091;28;20080;-77
2022/11/12 06:03:55;;;;;;;28.33;15.60;;;;;;;;;;5018865;28;20026;-77
2022/11/12 06:06:21;;;;;;;21.00;13.43;;;;;;;;;;5019069;28;20033;-77
2022/11/12 06:08:47;;;;;;;21.33;14.00;;;;;;;;;;5032000;28;20033;-77
2022/11/12 06:11:13;;;;;;;21.43;14.77;;;;;;;;;;5015975;28;20041;-77
2022/11/12 06:13:39;;;;;;;21.87;13.70;;;;;;;;;;5030230;28;20075;-78
2022/11/12 06:16:05;;;;;;;20.10;13.97;;;;;;;;;;5030889;28;20026;-78
2022/11/12 06:18:31;;;;;;;24.50;14.30;;;;;;;;;;5016785;28;20430;-77
2022/11/12 06:23:46;;;;;;;20.60;14.87;;;;;;;;;;5019087;28;20105;-76
2022/11/12 06:26:12;;;;;;;22.30;14.10;;;;;;;;;;5016789;28;20684;-76
2022/11/12 06:28:38;;;;;;;31.10;18.53;;;;;;;;;;5030238;28;20575;-77
2022/11/12 06:31:04;;;;;;;22.87;15.83;;;;;;;;;;5018773;28;20052;-77
2022/11/12 06:33:33;;;;;;;20.67;13.87;;;;;;;;;;5024271;28;20029;-76
2022/11/12 06:36:01;;;;;;;20.67;14.83;;;;;;;;;;5014864;28;20033;-77
2022/11/12 06:38:28;;;;;;;27.73;17.83;;;;;;;;;;5017911;28;20717;-77
2022/11/12 06:40:54;;;;;;;23.70;15.17;;;;;;;;;;5031635;28;20159;-77
2022/11/12 06:43:20;;;;;;;24.57;15.23;;;;;;;;;;5018543;28;20092;-77
2022/11/12 06:45:46;;;;;;;20.27;13.77;;;;;;;;;;5016469;28;21014;-76
2022/11/12 06:48:12;;;;;;;21.17;13.80;;;;;;;;;;5019695;28;20034;-77
2022/11/12 06:50:38;;;;;;;24.53;14.70;;;;;;;;;;5029350;28;20026;-77
2022/11/12 06:53:04;;;;;;;24.47;14.80;;;;;;;;;;5029322;28;20481;-77
2022/11/12 06:55:30;;;;;;;28.63;15.40;;;;;;;;;;5026634;28;20060;-76
2022/11/12 06:57:56;;;;;;;22.80;14.07;;;;;;;;;;5020160;28;20367;-78
2022/11/12 07:00:25;;;;;;;21.60;14.20;;;;;;;;;;5017993;28;20036;-77
2022/11/12 07:02:51;;;;;;;22.40;14.03;;;;;;;;;;5028467;28;20029;-77
2022/11/12 07:05:17;;;;;;;20.83;14.37;;;;;;;;;;5016629;28;20068;-77
2022/11/12 07:07:43;;;;;;;22.37;14.80;;;;;;;;;;5014168;28;20040;-77
2022/11/12 07:10:09;;;;;;;21.97;14.67;;;;;;;;;;5016029;28;20134;-77
2022/11/12 07:12:35;;;;;;;21.13;14.30;;;;;;;;;;5019824;28;20030;-76
2022/11/12 07:15:01;;;;;;;21.93;14.10;;;;;;;;;;5016829;28;20088;-76
2022/11/12 07:17:27;;;;;;;21.93;12.77;;;;;;;;;;5018134;28;20030;-78
2022/11/12 07:19:53;;;;;;;19.27;13.03;;;;;;;;;;5019839;28;20044;-78
2022/11/12 07:22:19;;;;;;;20.77;12.50;;;;;;;;;;5019171;28;20034;-78
2022/11/12 07:24:45;;;;;;;19.43;13.47;;;;;;;;;;5019522;28;20021;-77
2022/11/12 07:27:11;;;;;;;17.17;12.03;;;;;;;;;;5028537;28;20041;-77
2022/11/12 07:29:40;;;;;;;17.87;12.47;;;;;;;;;;5032778;28;20026;-76
2022/11/12 07:32:06;;;;;;;18.90;12.10;;;;;;;;;;5015425;28;20024;-78
2022/11/12 07:34:32;;;;;;;16.03;11.73;;;;;;;;;;5014678;28;20037;-77
2022/11/12 07:36:58;;;;;;;20.50;12.67;;;;;;;;;;5016825;28;20040;-76
2022/11/12 07:39:24;;;;;;;18.70;11.43;;;;;;;;;;5029868;28;20038;-78
2022/11/12 07:41:50;;;;;;;18.43;11.60;;;;;;;;;;5014748;28;21747;-78
2022/11/12 07:44:16;;;;;;;15.67;11.77;;;;;;;;;;5028143;28;20059;-76
2022/11/12 07:46:42;;;;;;;17.33;11.27;;;;;;;;;;5019679;28;20044;-75
2022/11/12 07:49:08;;;;;;;17.10;11.43;;;;;;;;;;5029777;28;20026;-77
2022/11/12 07:51:34;;;;;;;15.83;11.03;;;;;;;;;;5029313;28;20043;-77
2022/11/12 07:54:00;;;;;;;19.70;10.10;;;;;;;;;;5026080;28;20069;-77
2022/11/12 07:56:27;;;;;;;13.87;9.60;;;;;;;;;;5016172;28;20106;-77
2022/11/12 07:58:53;;;;;;;14.40;9.30;;;;;;;;;;5033678;28;20052;-76
2022/11/12 08:01:31;;;;;;;12.67;8.87;;;;;;;;;;5028202;28;20038;-78
2022/11/12 08:03:57;;;;;;;15.53;9.50;;;;;;;;;;5014935;28;20026;-78
2022/11/12 08:06:26;;;;;;;13.90;9.47;;;;;;;;;;5017297;28;20029;-76
2022/11/12 08:08:55;;;;;;;16.10;8.83;;;;;;;;;;5015257;28;20026;-77
2022/11/12 08:11:21;;;;;;;13.67;8.70;;;;;;;;;;5034314;28;20451;-78
2022/11/12 08:13:47;;;;;;;11.50;8.17;;;;;;;;;;5022186;28;20025;-77
2022/11/12 08:16:13;;;;;;;17.60;8.27;;;;;;;;;;5020907;28;20462;-77
2022/11/12 08:18:42;;;;;;;13.83;7.63;;;;;;;;;;5019413;28;20041;-76
2022/11/12 08:21:13;;;;;;;11.40;7.20;;;;;;;;;;5018516;28;20029;-76
2022/11/12 08:23:39;;;;;;;10.20;7.07;;;;;;;;;;5020179;28;20049;-75
2022/11/12 08:26:06;;;;;;;8.90;6.60;;;;;;;;;;5036252;28;20030;-78
2022/11/12 08:28:33;;;;;;;11.27;7.47;;;;;;;;;;5031419;28;20071;-76
2022/11/12 08:31:06;;;;;;;15.47;7.43;;;;;;;;;;5019656;28;20033;-77
2022/11/12 08:33:32;;;;;;;11.27;6.70;;;;;;;;;;5031036;28;20091;-77
2022/11/12 08:35:58;;;;;;;13.87;6.87;;;;;;;;;;5021519;28;20029;-77
2022/11/12 08:38:24;;;;;;;10.70;7.53;;;;;;;;;;5031712;28;20030;-77
2022/11/12 08:40:50;;;;;;;10.83;6.83;;;;;;;;;;5020948;28;20034;-77
2022/11/12 08:43:17;;;;;;;12.47;6.93;;;;;;;;;;5020192;28;20056;-77
2022/11/12 08:45:43;;;;;;;11.20;6.93;;;;;;;;;;5019872;28;20362;-77
2022/11/12 08:48:11;;;;;;;9.80;6.40;;;;;;;;;;5018492;28;20072;-77
2022/11/12 08:50:37;;;;;;;11.73;7.20;;;;;;;;;;5019883;28;20056;-76
2022/11/12 08:53:04;;;;;;;11.10;6.70;;;;;;;;;;5019024;28;20034;-76
2022/11/12 08:55:32;;;;;;;11.70;6.73;;;;;;;;;;5018645;28;20025;-77
2022/11/12 08:58:00;;;;;;;10.43;6.20;;;;;;;;;;5018844;28;20116;-75
2022/11/12 09:00:28;;;;;;;9.57;6.43;;;;;;;;;;5032483;28;21542;-77
2022/11/12 09:02:54;;;;;;;7.90;6.00;;;;;;;;;;5032581;28;20030;-78
2022/11/12 09:05:20;;;;;;;9.23;6.10;;;;;;;;;;5018091;28;20512;-76
2022/11/12 09:07:46;;;;;;;9.43;6.50;;;;;;;;;;5015045;28;20086;-77
2022/11/12 09:10:12;;;;;;;10.20;6.73;;;;;;;;;;5030871;28;21018;-78
2022/11/12 09:12:38;;;;;;;13.53;6.83;;;;;;;;;;5017504;28;20037;-76
2022/11/12 09:15:07;;;;;;;9.50;5.90;;;;;;;;;;5018377;28;20025;-76
2022/11/12 09:17:34;;;;;;;9.60;6.00;;;;;;;;;;5017989;28;20041;-77
2022/11/12 09:20:00;;;;;;;11.10;6.03;;;;;;;;;;5014010;28;20034;-77
2022/11/12 09:22:26;;;;;;;9.27;6.37;;;;;;;;;;5025717;28;20034;-77
2022/11/12 09:24:52;;;;;;;10.80;6.60;;;;;;;;;;5016195;28;20633;-77
2022/11/12 09:27:18;;;;;;;11.10;7.57;;;;;;;;;;5017070;28;20026;-77
2022/11/12 09:29:44;;;;;;;8.70;6.13;;;;;;;;;;5027326;28;20044;-76
2022/11/12 09:32:10;;;;;;;12.87;6.20;;;;;;;;;;5050419;28;20036;-78
2022/11/12 09:34:36;;;;;;;10.93;5.80;;;;;;;;;;5029832;28;20033;-77
2022/11/12 09:37:04;;;;;;;8.50;5.43;;;;;;;;;;5019689;28;20040;-77
2022/11/12 09:39:30;;;;;;;10.17;5.50;;;;;;;;;;5027296;28;20112;-77
2022/11/12 09:41:57;;;;;;;10.43;6.17;;;;;;;;;;5016890;28;20511;-77
2022/11/12 09:44:23;;;;;;;8.53;5.53;;;;;;;;;;5012856;28;20045;-76
2022/11/12 09:46:51;;;;;;;9.20;5.00;;;;;;;;;;5013313;28;20061;-77
2022/11/12 09:49:35;;;;;;;7.20;5.03;;;;;;;;;;5017576;28;20477;-76
2022/11/12 09:52:23;;;;;;;10.77;6.67;;;;;;;;;;5018065;28;20068;-77
2022/11/12 09:54:51;;;;;;;10.07;5.57;;;;;;;;;;5028760;28;20034;-78
2022/11/12 09:57:17;;;;;;;8.27;5.50;;;;;;;;;;5030170;28;20045;-78
2022/11/12 09:59:52;;;;;;;8.00;4.77;;;;;;;;;;5020437;28;20037;-77
2022/11/12 10:02:18;;;;;;;6.43;5.10;;;;;;;;;;5027453;28;20087;-77
2022/11/12 10:04:53;;;;;;;7.27;5.20;;;;;;;;;;5030854;28;20034;-78
2022/11/12 10:07:48;;;;;;;6.70;4.43;;;;;;;;;;5029526;28;20040;-79
2022/11/12 10:10:14;;;;;;;6.70;4.37;;;;;;;;;;5007901;28;20112;-77
2022/11/12 10:12:54;;;;;;;10.20;5.13;;;;;;;;;;5030697;28;20465;-76
2022/11/12 10:18:23;;;;;;;9.40;4.40;;;;;;;;;;5019829;28;20192;-77
2022/11/12 10:20:49;;;;;;;6.83;4.27;;;;;;;;;;5029373;28;20061;-77
2022/11/12 10:23:15;;;;;;;7.73;4.27;;;;;;;;;;5021045;28;20562;-76
2022/11/12 10:25:42;;;;;;;6.87;4.60;;;;;;;;;;5028030;28;20087;-77
2022/11/12 10:28:27;;;;;;;6.73;4.40;;;;;;;;;;5019194;28;20513;-77
2022/11/12 10:30:55;;;;;;;11.53;5.30;;;;;;;;;;5017518;28;20030;-76
2022/11/12 10:33:21;;;;;;;7.97;4.30;;;;;;;;;;5029182;28;20121;-77
2022/11/12 10:35:47;;;;;;;7.57;4.60;;;;;;;;;;5029260;28;20045;-77
2022/11/12 10:38:17;;;;;;;7.10;4.73;;;;;;;;;;5028287;28;20030;-77
2022/11/12 10:40:43;;;;;;;6.67;3.97;;;;;;;;;;5027907;28;20104;-77
2022/11/12 10:43:15;;;;;;;9.33;4.43;;;;;;;;;;5019407;28;20034;-77
2022/11/12 10:45:41;;;;;;;8.23;4.55;;;;;;;;;;5027704;28;20030;-77
2022/11/12 10:48:27;;;;;;;9.53;4.53;;;;;;;;;;5027898;28;20111;-77
2022/11/12 10:50:56;;;;;;;8.07;4.73;;;;;;;;;;5011978;28;20034;-77
2022/11/12 10:53:31;;;;;;;6.03;4.87;;;;;;;;;;5016145;28;20445;-77
2022/11/12 10:56:01;;;;;;;5.50;4.53;;;;;;;;;;5028178;28;20026;-76
2022/11/12 10:58:27;;;;;;;7.87;3.83;;;;;;;;;;5029830;28;20063;-77
2022/11/12 11:00:58;;;;;;;6.33;3.80;;;;;;;;;;5017030;28;20033;-77
2022/11/12 11:03:26;;;;;;;7.67;4.73;;;;;;;;;;5027634;28;20120;-75
2022/11/12 11:06:01;;;;;;;9.13;4.70;;;;;;;;;;5033438;28;20029;-77
2022/11/12 11:08:54;;;;;;;7.80;3.60;;;;;;;;;;5026655;28;20034;-75
2022/11/12 11:11:23;;;;;;;6.68;4.20;;;;;;;;;;5025141;28;20045;-77
2022/11/12 11:13:54;;;;;;;5.30;4.17;;;;;;;;;;5017323;28;20034;-76
2022/11/12 11:16:21;;;;;;;5.80;3.43;;;;;;;;;;5014293;28;20026;-76
2022/11/12 11:19:03;;;;;;;9.00;3.83;;;;;;;;;;5026121;28;20034;-77
2022/11/12 11:21:34;;;;;;;7.13;4.60;;;;;;;;;;5014555;28;20147;-77
2022/11/12 11:24:06;;;;;;;6.30;3.80;;;;;;;;;;5027944;28;20268;-76
2022/11/12 11:26:48;;;;;;;3.97;3.22;;;;;;;;;;5027830;28;20018;-77
2022/11/12 11:29:20;;;;;;;5.03;3.93;;;;;;;;;;5014926;28;20113;-76
2022/11/12 11:31:46;;;;;;;7.00;4.00;;;;;;;;;;5030829;28;20030;-77
2022/11/12 11:34:24;;;;;;;6.47;4.17;;;;;;;;;;5027327;28;20033;-77
2022/11/12 11:37:00;;;;;;;5.00;3.80;;;;;;;;;;5026895;28;20044;-77
2022/11/12 11:39:29;;;;;;;6.40;4.17;;;;;;;;;;5025064;28;20331;-77
2022/11/12 11:42:19;;;;;;;6.00;3.97;;;;;;;;;;5025320;28;20057;-77
2022/11/12 11:44:57;;;;;;;6.40;3.57;;;;;;;;;;5020971;28;20037;-77
2022/11/12 11:47:39;;;;;;;7.30;4.40;;;;;;;;;;5035797;28;20018;-76
2022/11/12 11:50:36;;;;;;;10.27;5.03;;;;;;;;;;5032162;28;20029;-77
2022/11/12 11:53:08;;;;;;;5.40;3.33;;;;;;;;;;5018962;28;20354;-77
2022/11/12 11:55:51;;;;;;;5.55;3.65;;;;;;;;;;5019601;28;20095;-76
2022/11/12 11:58:35;;;;;;;4.80;3.90;;;;;;;;;;5019215;28;20053;-75
2022/11/12 12:01:04;;;;;;;7.00;4.00;;;;;;;;;;5032448;28;21625;-77
2022/11/12 12:03:39;;;;;;;6.03;4.27;;;;;;;;;;5021938;28;20041;-76
2022/11/12 12:06:23;;;;;;;6.93;4.67;;;;;;;;;;5030046;28;20038;-77
2022/11/12 12:08:49;;;;;;;5.37;3.87;;;;;;;;;;5018272;28;21758;-76
2022/11/12 12:11:29;;;;;;;9.03;4.90;;;;;;;;;;5017958;28;20072;-76
2022/11/12 12:13:58;;;;;;;7.00;4.23;;;;;;;;;;5037893;28;20041;-77
2022/11/12 12:16:34;;;;;;;5.97;4.10;;;;;;;;;;5026515;28;20026;-76
2022/11/12 12:19:18;;;;;;;5.30;4.10;;;;;;;;;;5024118;28;20036;-76
2022/11/12 12:21:46;;;;;;;7.87;4.13;;;;;;;;;;5018311;28;20037;-77
2022/11/12 12:24:22;;;;;;;8.53;4.70;;;;;;;;;;5032431;28;20107;-76
2022/11/12 12:26:50;;;;;;;6.03;4.37;;;;;;;;;;5016621;28;20034;-77
2022/11/12 12:29:35;;;;;;;7.40;4.80;;;;;;;;;;5030513;28;20033;-76
2022/11/12 12:32:22;;;;;;;5.70;4.23;;;;;;;;;;5028385;28;20112;-77
2022/11/12 12:34:53;;;;;;;6.43;3.70;;;;;;;;;;5033393;28;20462;-77
2022/11/12 12:37:42;;;;;;;8.90;5.17;;;;;;;;;;5019374;28;20026;-77
2022/11/12 12:40:10;;;;;;;8.95;3.80;;;;;;;;;;5032830;28;20060;-77
2022/11/12 12:42:39;;;;;;;7.30;3.83;;;;;;;;;;5031619;28;20046;-76
2022/11/12 12:45:24;;;;;;;6.73;4.57;;;;;;;;;;5027220;28;20025;-77
2022/11/12 12:47:51;;;;;;;7.75;4.75;;;;;;;;;;5031989;28;20026;-76
2022/11/12 12:50:20;;;;;;;9.17;5.20;;;;;;;;;;5021748;28;20442;-76
2022/11/12 12:53:04;;;;;;;10.23;5.00;;;;;;;;;;5019162;28;20033;-76
2022/11/12 12:55:41;;;;;;;6.32;3.50;;;;;;;;;;5029109;28;20038;-76
2022/11/12 12:58:19;;;;;;;8.90;4.32;;;;;;;;;;5019693;28;20041;-77
2022/11/12 13:01:08;;;;;;;8.98;4.63;;;;;;;;;;5034432;28;20030;-77
2022/11/12 13:03:43;;;;;;;88.17;56.83;;;;;;;;;;5024015;28;20046;-76
2022/11/12 13:06:22;;;;;;;10.02;5.95;;;;;;;;;;5032685;28;20037;-77
2022/11/12 13:08:56;;;;;;;5.53;3.97;;;;;;;;;;5024723;28;20072;-78
2022/11/12 13:14:35;;;;;;;5.97;3.97;;;;;;;;;;5019856;28;20041;-77
2022/11/12 13:17:04;;;;;;;4.63;4.03;;;;;;;;;;5031950;28;20612;-77
2022/11/12 13:19:34;;;;;;;8.50;4.40;;;;;;;;;;5033180;28;20465;-76
2022/11/12 13:22:19;;;;;;;5.28;3.90;;;;;;;;;;5037634;28;20038;-77
2022/11/12 13:25:10;;;;;;;10.40;4.07;;;;;;;;;;5030275;28;20049;-76
2022/11/12 13:27:39;;;;;;;12.57;5.10;;;;;;;;;;5018745;28;20037;-77
2022/11/12 13:30:08;;;;;;;7.47;4.72;;;;;;;;;;5030788;28;20033;-77
2022/11/12 13:32:40;;;;;;;6.70;4.60;;;;;;;;;;5022289;28;20022;-77
2022/11/12 13:35:06;;;;;;;;;;;;;;;;;;5030834;28;20056;-77
2022/11/12 13:37:32;;;;;;;8.15;3.63;;;;;;;;;;5031609;28;19948;-77
2022/11/12 13:40:04;;;;;;;7.32;4.32;;;;;;;;;;5016651;28;20041;-77
2022/11/12 13:42:49;;;;;;;8.20;4.97;;;;;;;;;;5020964;28;20459;-78
2022/11/12 13:45:16;;;;;;;6.68;4.28;;;;;;;;;;5019146;28;20037;-77
2022/11/12 13:47:42;;;;;;;5.72;3.92;;;;;;;;;;5019450;28;20354;-77
2022/11/12 13:50:12;;;;;;;6.38;3.80;;;;;;;;;;5028950;28;20081;-77
2022/11/12 13:52:39;;;;;;;6.43;3.72;;;;;;;;;;5014620;28;20025;-77
2022/11/12 13:55:15;;;;;;;5.65;3.58;;;;;;;;;;5016134;28;20032;-77
2022/11/12 13:57:47;;;;;;;4.90;3.22;;;;;;;;;;5018688;28;20022;-77
2022/11/12 14:00:20;;;;;;;5.63;3.50;;;;;;;;;;5020983;28;20029;-77
2022/11/12 14:03:05;;;;;;;7.13;3.47;;;;;;;;;;5018520;28;20455;-77
2022/11/12 14:05:33;;;;;;;6.53;3.50;;;;;;;;;;5019031;28;20478;-77
2022/11/12 14:08:05;;;;;;;4.97;3.58;;;;;;;;;;5017954;28;20088;-77
2022/11/12 14:10:31;;;;;;;4.63;3.40;;;;;;;;;;5018345;28;20022;-77
2022/11/12 14:13:15;;;;;;;6.72;3.63;;;;;;;;;;5017553;28;20026;-77
2022/11/12 14:15:41;;;;;;;8.20;3.42;;;;;;;;;;5030927;28;20386;-77
2022/11/12 14:18:10;;;;;;;4.88;3.22;;;;;;;;;;5020636;28;20033;-77
2022/11/12 14:20:39;;;;;;;7.13;3.28;;;;;;;;;;5031712;28;20046;-77
2022/11/12 14:23:18;;;;;;;5.93;3.80;;;;;;;;;;5029319;28;20049;-77
2022/11/12 14:25:49;;;;;;;6.50;3.95;;;;;;;;;;5031591;28;20753;-77
2022/11/12 14:28:45;;;;;;;5.80;3.67;;;;;;;;;;5031376;28;20034;-77
2022/11/12 14:31:12;;;;;;;7.05;3.75;;;;;;;;;;5027084;28;20055;-77
2022/11/12 14:33:39;;;;;;;6.50;3.92;;;;;;;;;;5031539;28;20049;-77
2022/11/12 14:36:08;;;;;;;6.63;3.80;;;;;;;;;;5017980;28;20139;-76
2022/11/12 14:38:41;;;;;;;6.03;3.55;;;;;;;;;;5020421;28;20099;-77
2022/11/12 14:41:09;;;;;;;9.00;3.42;;;;;;;;;;5017870;28;20061;-77
2022/11/12 14:43:48;;;;;;;5.57;3.55;;;;;;;;;;5020087;28;20462;-77
2022/11/12 14:46:26;;;;;;;6.65;3.80;;;;;;;;;;5030614;28;20108;-77
2022/11/12 14:49:22;;;;;;;8.55;3.63;;;;;;;;;;5020008;28;20025;-77
2022/11/12 14:51:57;;;;;;;6.25;3.80;;;;;;;;;;5009474;28;20100;-77
2022/11/12 14:54:29;;;;;;;8.77;4.18;;;;;;;;;;5015971;28;20104;-77
2022/11/12 14:56:58;;;;;;;6.72;4.50;;;;;;;;;;5034768;28;20030;-77
2022/11/12 14:59:24;;;;;;;6.38;3.20;;;;;;;;;;5014960;28;20120;-77
2022/11/12 15:02:11;;;;;;;6.70;3.10;;;;;;;;;;5031331;28;20064;-77
2022/11/12 15:04:53;;;;;;;5.90;3.63;;;;;;;;;;5015447;28;20049;-77
2022/11/12 15:07:42;;;;;;;5.20;3.25;;;;;;;;;;5017358;28;20025;-77
2022/11/12 15:10:27;;;;;;;5.20;3.10;;;;;;;;;;5018877;28;20122;-76
2022/11/12 15:13:00;;;;;;;5.03;3.05;;;;;;;;;;5033577;28;20091;-77